createdAt,value
2017-05-21T00:01:19.529Z,99.90
2017-05-21T00:03:47.260Z,99.90
2017-05-21T00:06:15.488Z,99.90
2017-05-21T00:08:43.224Z,99.90
2017-05-21T00:11:10.960Z,99.90
2017-05-21T00:13:39.081Z,99.90
2017-05-21T00:16:06.822Z,99.90
2017-05-21T00:18:34.552Z,99.90
2017-05-21T00:21:02.333Z,99.90
2017-05-21T00:23:30.080Z,99.90
2017-05-21T00:25:57.813Z,99.90
2017-05-21T00:28:25.972Z,99.90
2017-05-21T00:30:53.711Z,99.90
2017-05-21T00:33:21.448Z,99.90
2017-05-21T00:35:49.225Z,99.90
2017-05-21T00:38:17.027Z,99.90
2017-05-21T00:40:44.771Z,99.90
2017-05-21T00:43:12.697Z,99.90
2017-05-21T00:45:40.438Z,99.90
2017-05-21T00:48:08.173Z,99.90
2017-05-21T00:50:35.933Z,99.90
2017-05-21T00:53:03.683Z,99.90
2017-05-21T00:55:31.415Z,99.90
2017-05-21T00:58:00.068Z,99.90
2017-05-21T01:00:27.799Z,99.90
2017-05-21T01:02:55.528Z,99.90
2017-05-21T01:05:23.305Z,99.90
2017-05-21T01:07:51.038Z,99.90
2017-05-21T01:10:18.777Z,99.90
2017-05-21T01:12:47.257Z,99.90
2017-05-21T01:15:14.990Z,99.90
2017-05-21T01:17:42.720Z,99.90
2017-05-21T01:20:10.474Z,99.90
2017-05-21T01:22:38.212Z,99.90
2017-05-21T01:25:05.969Z,99.90
2017-05-21T01:27:34.349Z,99.90
2017-05-21T01:30:02.086Z,99.90
2017-05-21T01:32:29.832Z,99.90
2017-05-21T01:34:57.605Z,99.90
2017-05-21T01:37:25.344Z,99.90
2017-05-21T01:39:53.076Z,99.90
2017-05-21T01:42:21.969Z,99.90
2017-05-21T01:44:49.724Z,99.90
2017-05-21T01:47:17.456Z,99.90
2017-05-21T01:49:45.247Z,99.90
2017-05-21T01:52:12.997Z,99.90
2017-05-21T01:54:40.729Z,99.90
2017-05-21T01:57:08.484Z,99.90
2017-05-21T01:59:36.210Z,99.90
2017-05-21T02:02:03.964Z,99.90
2017-05-21T02:07:05.777Z,99.90
2017-05-21T02:09:33.816Z,99.90
2017-05-21T02:12:01.540Z,99.90
2017-05-21T02:14:29.271Z,99.90
2017-05-21T02:16:57.832Z,99.90
2017-05-21T02:19:25.564Z,99.90
2017-05-21T02:21:53.291Z,99.90
2017-05-21T02:24:21.056Z,99.90
2017-05-21T02:26:48.799Z,99.90
2017-05-21T02:29:15.765Z,99.90
2017-05-21T02:31:43.554Z,99.90
2017-05-21T02:34:11.284Z,99.90
2017-05-21T02:36:39.048Z,99.90
2017-05-21T02:39:06.975Z,99.90
2017-05-21T02:41:37.292Z,99.90
2017-05-21T02:44:05.016Z,99.90
2017-05-21T02:46:32.800Z,99.90
2017-05-21T02:49:00.552Z,99.90
2017-05-21T02:51:28.287Z,99.90
2017-05-21T02:53:57.044Z,99.90
2017-05-21T02:56:24.807Z,99.90
2017-05-21T02:58:52.545Z,99.90
2017-05-21T03:01:20.308Z,99.90
2017-05-21T03:03:48.052Z,99.90
2017-05-21T03:06:15.784Z,99.90
2017-05-21T03:08:43.642Z,99.90
2017-05-21T03:11:11.373Z,99.90
2017-05-21T03:13:39.118Z,99.90
2017-05-21T03:16:06.876Z,99.90
2017-05-21T03:18:34.617Z,99.90
2017-05-21T03:21:02.385Z,99.90
2017-05-21T03:23:30.129Z,99.90
2017-05-21T03:25:58.035Z,99.90
2017-05-21T03:28:25.773Z,99.90
2017-05-21T03:30:53.500Z,99.90
2017-05-21T03:33:21.468Z,99.90
2017-05-21T03:35:49.210Z,99.90
2017-05-21T03:38:16.948Z,99.90
2017-05-21T03:40:44.707Z,99.90
2017-05-21T03:43:12.816Z,99.90
2017-05-21T03:45:40.577Z,99.90
2017-05-21T03:48:08.565Z,99.90
2017-05-21T03:50:36.298Z,99.90
2017-05-21T03:53:04.033Z,99.90
2017-05-21T03:55:32.038Z,99.90
2017-05-21T03:57:59.769Z,99.90
2017-05-21T04:00:27.496Z,99.90
2017-05-21T04:02:56.174Z,99.90
2017-05-21T04:05:23.912Z,99.90
2017-05-21T04:07:51.647Z,99.90
2017-05-21T04:10:19.403Z,99.90
2017-05-21T04:12:47.157Z,99.90
2017-05-21T04:15:14.887Z,99.90
2017-05-21T04:17:42.960Z,99.90
2017-05-21T04:20:10.687Z,99.90
2017-05-21T04:22:38.420Z,99.90
2017-05-21T04:25:06.556Z,99.90
2017-05-21T04:27:34.291Z,99.90
2017-05-21T04:30:01.253Z,99.90
2017-05-21T04:32:29.644Z,99.90
2017-05-21T04:34:57.379Z,99.90
2017-05-21T04:37:25.109Z,99.90
2017-05-21T04:39:52.884Z,99.90
2017-05-21T04:42:20.633Z,99.90
2017-05-21T04:44:49.228Z,99.90
2017-05-21T04:47:17.455Z,99.90
2017-05-21T04:49:45.186Z,99.90
2017-05-21T04:52:12.919Z,99.90
2017-05-21T04:54:40.685Z,99.90
2017-05-21T04:57:08.416Z,99.90
2017-05-21T04:59:36.168Z,99.90
2017-05-21T05:02:04.244Z,99.90
2017-05-21T05:04:31.982Z,99.90
2017-05-21T05:06:59.719Z,99.90
2017-05-21T05:09:27.940Z,99.90
2017-05-21T05:11:55.662Z,99.90
2017-05-21T05:14:23.396Z,99.90
2017-05-21T05:16:51.384Z,99.90
2017-05-21T05:19:19.122Z,99.90
2017-05-21T05:21:46.867Z,99.90
2017-05-21T05:24:15.105Z,99.90
2017-05-21T05:26:42.853Z,99.90
2017-05-21T05:29:10.585Z,99.90
2017-05-21T05:31:38.580Z,99.90
2017-05-21T05:34:06.312Z,99.90
2017-05-21T05:36:34.038Z,99.90
2017-05-21T05:39:01.817Z,99.90
2017-05-21T05:41:29.574Z,99.90
2017-05-21T05:43:57.308Z,99.90
2017-05-21T05:46:25.328Z,99.50
2017-05-21T05:48:53.065Z,98.80
2017-05-21T05:51:20.800Z,98.60
2017-05-21T05:53:48.848Z,98.70
2017-05-21T05:56:16.582Z,97.60
2017-05-21T05:58:43.553Z,97.60
2017-05-21T06:01:11.306Z,96.50
2017-05-21T06:03:39.053Z,95.10
2017-05-21T06:06:06.791Z,94.10
2017-05-21T06:08:34.784Z,92.90
2017-05-21T06:11:02.508Z,92.90
2017-05-21T06:13:30.235Z,92.50
2017-05-21T06:15:58.056Z,91.00
2017-05-21T06:18:25.776Z,91.10
2017-05-21T06:20:53.524Z,91.50
2017-05-21T06:23:21.780Z,90.90
2017-05-21T06:25:49.519Z,90.30
2017-05-21T06:28:17.253Z,90.10
2017-05-21T06:30:45.276Z,89.80
2017-05-21T06:33:13.008Z,90.20
2017-05-21T06:35:40.736Z,90.30
2017-05-21T06:38:09.056Z,90.00
2017-05-21T06:40:36.784Z,89.10
2017-05-21T06:43:04.515Z,88.80
2017-05-21T06:45:33.885Z,88.30
2017-05-21T06:48:01.616Z,87.70
2017-05-21T06:50:29.333Z,86.80
2017-05-21T06:52:57.508Z,87.50
2017-05-21T06:55:25.240Z,87.10
2017-05-21T06:57:52.964Z,85.90
2017-05-21T07:00:21.212Z,86.00
2017-05-21T07:02:48.209Z,86.00
2017-05-21T07:05:15.943Z,85.90
2017-05-21T07:07:43.700Z,85.10
2017-05-21T07:10:11.526Z,85.50
2017-05-21T07:12:39.280Z,84.00
2017-05-21T07:15:07.044Z,84.60
2017-05-21T07:17:34.791Z,83.90
2017-05-21T07:20:02.536Z,83.80
2017-05-21T07:22:31.193Z,81.60
2017-05-21T07:24:59.129Z,81.40
2017-05-21T07:27:26.863Z,81.30
2017-05-21T07:29:54.617Z,80.40
2017-05-21T07:32:22.346Z,79.30
2017-05-21T07:34:49.325Z,79.20
2017-05-21T07:37:17.080Z,78.80
2017-05-21T07:39:44.833Z,78.00
2017-05-21T07:42:12.584Z,77.50
2017-05-21T07:44:40.551Z,77.80
2017-05-21T07:47:08.316Z,76.60
2017-05-21T07:49:35.286Z,76.70
2017-05-21T07:52:03.050Z,70.60
2017-05-21T07:54:30.817Z,72.10
2017-05-21T07:56:58.567Z,72.80
2017-05-21T07:59:26.325Z,73.60
2017-05-21T08:01:54.047Z,73.30
2017-05-21T08:04:21.777Z,72.00
2017-05-21T08:06:50.546Z,71.90
2017-05-21T08:09:17.516Z,71.80
2017-05-21T08:11:45.454Z,70.20
2017-05-21T08:14:13.931Z,70.60
2017-05-21T08:16:41.663Z,70.10
2017-05-21T08:19:09.392Z,70.30
2017-05-21T08:21:37.435Z,70.10
2017-05-21T08:24:05.161Z,71.50
2017-05-21T08:26:32.896Z,71.80
2017-05-21T08:29:00.951Z,72.50
2017-05-21T08:31:28.857Z,70.20
2017-05-21T08:33:56.592Z,70.60
2017-05-21T08:36:24.932Z,69.40
2017-05-21T08:38:52.667Z,69.40
2017-05-21T08:41:20.399Z,68.70
2017-05-21T08:43:48.515Z,68.40
2017-05-21T08:46:16.244Z,67.60
2017-05-21T08:48:43.971Z,66.40
2017-05-21T08:51:11.848Z,66.20
2017-05-21T08:53:40.432Z,65.80
2017-05-21T08:56:08.812Z,66.00
2017-05-21T08:58:38.153Z,65.60
2017-05-21T09:01:06.683Z,67.00
2017-05-21T09:03:35.293Z,68.00
2017-05-21T09:06:05.951Z,68.40
2017-05-21T09:08:34.699Z,69.10
2017-05-21T09:11:03.180Z,69.00
2017-05-21T09:13:31.776Z,68.00
2017-05-21T09:16:00.252Z,68.60
2017-05-21T09:18:30.001Z,68.30
2017-05-21T09:20:58.187Z,68.80
2017-05-21T09:23:25.923Z,68.00
2017-05-21T09:25:53.655Z,68.40
2017-05-21T09:28:21.410Z,65.20
2017-05-21T09:30:49.136Z,66.20
2017-05-21T09:33:17.316Z,67.20
2017-05-21T09:35:45.536Z,67.20
2017-05-21T09:38:13.279Z,67.60
2017-05-21T09:40:41.121Z,68.30
2017-05-21T09:43:09.756Z,67.50
2017-05-21T09:45:37.588Z,67.50
2017-05-21T09:48:05.321Z,66.70
2017-05-21T09:50:33.344Z,67.30
2017-05-21T09:53:01.095Z,65.60
2017-05-21T09:55:28.824Z,64.70
2017-05-21T09:57:56.815Z,63.80
2017-05-21T10:00:24.543Z,61.70
2017-05-21T10:02:52.282Z,62.10
2017-05-21T10:05:20.027Z,58.40
2017-05-21T10:07:47.772Z,55.90
2017-05-21T10:10:15.501Z,57.90
2017-05-21T10:12:43.273Z,59.40
2017-05-21T10:15:11.060Z,60.70
2017-05-21T10:17:38.787Z,60.40
2017-05-21T10:20:06.565Z,59.40
2017-05-21T10:22:34.293Z,60.70
2017-05-21T10:25:02.017Z,62.30
2017-05-21T10:27:30.109Z,63.20
2017-05-21T10:29:57.852Z,61.40
2017-05-21T10:32:25.580Z,61.70
2017-05-21T10:34:53.336Z,59.70
2017-05-21T10:37:21.092Z,58.90
2017-05-21T10:39:48.823Z,60.00
2017-05-21T10:42:16.589Z,55.90
2017-05-21T10:44:44.348Z,56.30
2017-05-21T10:47:12.075Z,57.50
2017-05-21T10:49:40.819Z,57.50
2017-05-21T10:52:07.773Z,57.50
2017-05-21T10:54:34.821Z,57.50
2017-05-21T10:57:02.971Z,56.20
2017-05-21T10:59:30.702Z,55.90
2017-05-21T11:01:58.456Z,55.50
2017-05-21T11:04:26.225Z,55.40
2017-05-21T11:06:53.966Z,54.80
2017-05-21T11:09:21.785Z,56.70
2017-05-21T11:11:49.546Z,56.80
2017-05-21T11:14:17.289Z,57.20
2017-05-21T11:16:45.040Z,56.60
2017-05-21T11:19:13.153Z,58.30
2017-05-21T11:21:40.875Z,52.20
2017-05-21T11:24:08.605Z,52.80
2017-05-21T11:26:36.360Z,50.90
2017-05-21T11:29:04.106Z,53.20
2017-05-21T11:31:31.833Z,54.80
2017-05-21T11:33:59.589Z,56.10
2017-05-21T11:36:27.324Z,56.40
2017-05-21T11:38:55.065Z,53.30
2017-05-21T11:41:23.132Z,54.20
2017-05-21T11:43:50.856Z,55.10
2017-05-21T11:46:18.576Z,54.50
2017-05-21T11:48:46.325Z,55.40
2017-05-21T11:51:14.066Z,53.70
2017-05-21T11:53:41.793Z,53.00
2017-05-21T11:56:09.557Z,54.50
2017-05-21T11:58:37.304Z,53.50
2017-05-21T12:01:05.048Z,51.70
2017-05-21T12:03:33.304Z,51.70
2017-05-21T12:06:01.025Z,53.30
2017-05-21T12:08:28.752Z,55.40
2017-05-21T12:10:57.108Z,56.60
2017-05-21T12:13:24.835Z,55.60
2017-05-21T12:15:52.561Z,53.60
2017-05-21T12:18:20.308Z,53.80
2017-05-21T12:20:48.048Z,54.80
2017-05-21T12:23:15.780Z,53.70
2017-05-21T12:25:44.104Z,53.80
2017-05-21T12:28:11.831Z,56.90
2017-05-21T12:30:39.571Z,58.00
2017-05-21T12:33:07.333Z,59.90
2017-05-21T12:35:35.062Z,55.30
2017-05-21T12:38:02.794Z,54.60
2017-05-21T12:40:30.793Z,55.10
2017-05-21T12:42:58.532Z,52.20
2017-05-21T12:45:26.260Z,53.20
2017-05-21T12:47:54.392Z,54.30
2017-05-21T12:50:22.136Z,55.50
2017-05-21T12:52:49.866Z,51.70
2017-05-21T12:55:17.983Z,53.60
2017-05-21T12:57:45.709Z,52.50
2017-05-21T13:00:13.435Z,52.20
2017-05-21T13:02:41.788Z,53.30
2017-05-21T13:05:09.632Z,52.40
2017-05-21T13:07:37.381Z,52.40
2017-05-21T13:10:05.281Z,51.40
2017-05-21T13:12:32.999Z,51.50
2017-05-21T13:15:00.724Z,53.80
2017-05-21T13:17:28.781Z,49.70
2017-05-21T13:19:56.511Z,52.40
2017-05-21T13:22:24.227Z,51.40
2017-05-21T13:24:52.329Z,48.70
2017-05-21T13:27:20.071Z,46.00
2017-05-21T13:29:47.823Z,45.40
2017-05-21T13:32:15.576Z,45.10
2017-05-21T13:34:43.332Z,44.80
2017-05-21T13:37:11.056Z,45.30
2017-05-21T13:39:39.937Z,49.30
2017-05-21T13:42:07.664Z,50.50
2017-05-21T13:44:35.389Z,53.50
2017-05-21T13:47:04.299Z,45.40
2017-05-21T13:49:32.033Z,41.60
2017-05-21T13:51:59.761Z,41.10
2017-05-21T13:54:27.526Z,38.20
2017-05-21T13:56:55.288Z,35.40
2017-05-21T13:59:24.561Z,38.60
2017-05-21T14:01:52.333Z,38.60
2017-05-21T14:04:20.068Z,35.50
2017-05-21T14:06:47.791Z,34.30
2017-05-21T14:09:15.152Z,34.20
2017-05-21T14:11:42.887Z,43.60
2017-05-21T14:14:10.633Z,44.60
2017-05-21T14:16:39.615Z,41.20
2017-05-21T14:19:07.369Z,35.40
2017-05-21T14:21:34.340Z,35.30
2017-05-21T14:24:02.400Z,34.90
2017-05-21T14:26:30.140Z,32.00
2017-05-21T14:28:57.873Z,32.30
2017-05-21T14:31:26.504Z,31.60
2017-05-21T14:33:54.238Z,31.40
2017-05-21T14:36:21.971Z,31.10
2017-05-21T14:38:50.015Z,31.10
2017-05-21T14:41:16.984Z,31.10
2017-05-21T14:43:44.776Z,31.90
2017-05-21T14:46:12.784Z,31.90
2017-05-21T14:48:40.523Z,32.60
2017-05-21T14:51:08.267Z,31.70
2017-05-21T14:53:36.017Z,30.80
2017-05-21T14:56:03.769Z,32.10
2017-05-21T14:58:31.514Z,31.40
2017-05-21T15:00:59.956Z,30.10
2017-05-21T15:03:27.680Z,31.30
2017-05-21T15:05:55.475Z,31.20
2017-05-21T15:08:23.232Z,30.00
2017-05-21T15:10:51.056Z,30.60
2017-05-21T15:13:18.048Z,30.60
2017-05-21T15:15:46.362Z,30.70
2017-05-21T15:18:14.100Z,31.30
2017-05-21T15:20:41.848Z,32.00
2017-05-21T15:23:09.610Z,31.40
2017-05-21T15:25:37.371Z,30.30
2017-05-21T15:28:05.127Z,31.60
2017-05-21T15:30:32.904Z,33.30
2017-05-21T15:33:00.636Z,36.50
2017-05-21T15:35:28.385Z,38.80
2017-05-21T15:37:56.640Z,43.80
2017-05-21T15:40:24.364Z,45.10
2017-05-21T15:42:52.085Z,47.10
2017-05-21T15:45:19.992Z,49.10
2017-05-21T15:47:47.741Z,47.00
2017-05-21T15:50:15.467Z,42.90
2017-05-21T15:52:42.466Z,42.80
2017-05-21T15:55:10.192Z,38.40
2017-05-21T15:57:37.935Z,37.40
2017-05-21T16:00:05.687Z,36.00
2017-05-21T16:02:33.453Z,34.20
2017-05-21T16:05:01.182Z,35.90
2017-05-21T16:07:29.603Z,36.50
2017-05-21T16:09:57.332Z,35.30
2017-05-21T16:12:25.068Z,34.40
2017-05-21T16:14:53.692Z,37.50
2017-05-21T16:17:21.440Z,37.50
2017-05-21T16:19:49.216Z,36.30
2017-05-21T16:22:17.621Z,35.70
2017-05-21T16:24:45.417Z,35.90
2017-05-21T16:27:13.143Z,34.50
2017-05-21T16:29:42.035Z,34.90
2017-05-21T16:32:09.769Z,35.60
2017-05-21T16:34:37.510Z,35.70
2017-05-21T16:37:05.264Z,34.70
2017-05-21T16:39:33.007Z,33.40
2017-05-21T16:42:00.765Z,33.30
2017-05-21T16:44:28.726Z,34.40
2017-05-21T16:46:56.484Z,33.30
2017-05-21T16:49:28.870Z,33.30
2017-05-21T16:51:57.044Z,32.50
2017-05-21T16:54:24.837Z,32.80
2017-05-21T16:56:52.575Z,32.00
2017-05-21T16:59:20.337Z,31.90
2017-05-21T17:01:48.084Z,31.60
2017-05-21T17:04:15.814Z,31.20
2017-05-21T17:06:44.028Z,31.90
2017-05-21T17:09:11.867Z,33.50
2017-05-21T17:11:39.735Z,33.50
2017-05-21T17:14:07.517Z,35.50
2017-05-21T17:16:35.257Z,38.60
2017-05-21T17:19:02.984Z,40.20
2017-05-21T17:21:30.915Z,43.90
2017-05-21T17:23:58.655Z,47.20
2017-05-21T17:26:26.383Z,48.00
2017-05-21T17:28:54.152Z,49.60
2017-05-21T17:31:22.014Z,50.00
2017-05-21T17:33:49.757Z,52.00
2017-05-21T17:36:17.519Z,55.70
2017-05-21T17:38:45.281Z,55.40
2017-05-21T17:41:13.046Z,55.20
2017-05-21T17:43:41.008Z,54.90
2017-05-21T17:46:08.740Z,56.50
2017-05-21T17:48:36.473Z,58.10
2017-05-21T17:51:04.238Z,59.20
2017-05-21T17:53:32.005Z,60.40
2017-05-21T17:55:59.740Z,58.10
2017-05-21T17:58:28.094Z,58.50
2017-05-21T18:00:55.824Z,59.20
2017-05-21T18:03:23.565Z,60.30
2017-05-21T18:05:51.320Z,61.00
2017-05-21T18:08:18.310Z,61.00
2017-05-21T18:10:46.037Z,61.00
2017-05-21T18:13:14.472Z,60.40
2017-05-21T18:15:42.213Z,60.60
2017-05-21T18:18:09.942Z,61.70
2017-05-21T18:20:38.289Z,62.30
2017-05-21T18:23:06.024Z,62.30
2017-05-21T18:25:34.293Z,62.80
2017-05-21T18:28:02.312Z,63.10
2017-05-21T18:30:29.288Z,63.10
2017-05-21T18:32:57.087Z,62.60
2017-05-21T18:35:24.848Z,62.50
2017-05-21T18:37:51.834Z,62.00
2017-05-21T18:40:19.565Z,63.20
2017-05-21T18:42:48.353Z,63.50
2017-05-21T18:45:16.086Z,63.50
2017-05-21T18:47:43.054Z,63.50
2017-05-21T18:50:11.040Z,64.90
2017-05-21T18:52:38.007Z,64.90
2017-05-21T18:55:05.736Z,66.20
2017-05-21T18:57:34.257Z,67.30
2017-05-21T19:00:01.993Z,68.40
2017-05-21T19:02:29.741Z,68.20
2017-05-21T19:04:57.500Z,68.20
2017-05-21T19:07:25.924Z,68.70
2017-05-21T19:09:52.907Z,68.70
2017-05-21T19:12:20.673Z,71.00
2017-05-21T19:14:48.429Z,68.90
2017-05-21T19:17:16.180Z,68.90
2017-05-21T19:19:43.949Z,69.50
2017-05-21T19:22:11.933Z,71.10
2017-05-21T19:24:39.673Z,69.70
2017-05-21T19:27:07.788Z,71.00
2017-05-21T19:29:35.522Z,71.60
2017-05-21T19:32:03.281Z,73.70
2017-05-21T19:34:32.386Z,73.70
2017-05-21T19:37:00.107Z,73.70
2017-05-21T19:39:27.836Z,73.60
2017-05-21T19:41:55.909Z,74.00
2017-05-21T19:44:23.641Z,74.20
2017-05-21T19:46:51.373Z,73.40
2017-05-21T19:49:19.311Z,73.50
2017-05-21T19:51:47.047Z,73.30
2017-05-21T19:54:14.814Z,73.40
2017-05-21T19:56:42.567Z,74.70
2017-05-21T19:59:09.543Z,74.70
2017-05-21T20:01:36.555Z,73.60
2017-05-21T20:04:04.300Z,74.80
2017-05-21T20:06:32.032Z,74.20
2017-05-21T20:08:59.246Z,74.10
2017-05-21T20:11:27.233Z,74.50
2017-05-21T20:13:54.967Z,75.30
2017-05-21T20:16:22.688Z,74.40
2017-05-21T20:18:51.368Z,75.40
2017-05-21T20:21:19.113Z,76.00
2017-05-21T20:23:46.856Z,78.00
2017-05-21T20:26:15.088Z,77.60
2017-05-21T20:28:42.843Z,78.20
2017-05-21T20:31:10.585Z,79.20
2017-05-21T20:33:39.881Z,75.60
2017-05-21T20:36:07.628Z,75.50
2017-05-21T20:38:35.409Z,76.60
2017-05-21T20:41:03.464Z,75.30
2017-05-21T20:43:31.201Z,76.60
2017-05-21T20:45:58.960Z,76.40
2017-05-21T20:48:26.896Z,80.10
2017-05-21T20:50:54.642Z,79.50
2017-05-21T20:53:22.380Z,76.40
2017-05-21T20:55:50.460Z,78.40
2017-05-21T20:58:18.268Z,79.30
2017-05-21T21:00:45.997Z,80.30
2017-05-21T21:03:13.759Z,80.50
2017-05-21T21:05:41.500Z,83.00
2017-05-21T21:08:09.234Z,79.40
2017-05-21T21:10:37.560Z,83.70
2017-05-21T21:13:05.289Z,82.40
2017-05-21T21:15:33.021Z,82.30
2017-05-21T21:18:01.461Z,82.60
2017-05-21T21:20:29.182Z,83.80
2017-05-21T21:22:56.966Z,81.80
2017-05-21T21:25:24.968Z,81.80
2017-05-21T21:27:52.701Z,84.60
2017-05-21T21:30:20.429Z,84.50
2017-05-21T21:32:48.289Z,84.70
2017-05-21T21:35:16.039Z,81.40
2017-05-21T21:37:44.137Z,84.20
2017-05-21T21:40:12.362Z,83.00
2017-05-21T21:42:40.096Z,83.40
2017-05-21T21:45:07.836Z,83.00
2017-05-21T21:47:35.857Z,83.40
2017-05-21T21:50:03.583Z,85.60
2017-05-21T21:52:31.311Z,88.20
2017-05-21T21:54:59.088Z,85.40
2017-05-21T21:57:26.837Z,88.40
2017-05-21T21:59:54.561Z,86.80
2017-05-21T22:02:22.465Z,87.70
2017-05-21T22:04:50.249Z,88.30
2017-05-21T22:07:18.012Z,90.20
2017-05-21T22:09:45.944Z,90.20
2017-05-21T22:12:13.723Z,91.30
2017-05-21T22:14:41.466Z,91.30
2017-05-21T22:17:09.441Z,92.50
2017-05-21T22:19:37.176Z,91.70
2017-05-21T22:22:04.927Z,93.40
2017-05-21T22:24:33.232Z,92.60
2017-05-21T22:27:00.980Z,92.40
2017-05-21T22:29:27.946Z,92.50
2017-05-21T22:31:55.732Z,93.00
2017-05-21T22:34:23.551Z,95.50
2017-05-21T22:36:51.292Z,95.40
2017-05-21T22:39:20.374Z,97.00
2017-05-21T22:41:48.104Z,95.70
2017-05-21T22:44:15.891Z,96.10
2017-05-21T22:46:44.016Z,95.40
2017-05-21T22:49:11.764Z,96.70
2017-05-21T22:51:39.495Z,98.90
2017-05-21T22:54:07.259Z,99.90
2017-05-21T22:56:35.023Z,99.30
2017-05-21T22:59:02.754Z,98.80
2017-05-21T23:01:30.920Z,99.40
2017-05-21T23:03:58.668Z,99.90
2017-05-21T23:06:26.398Z,99.10
2017-05-21T23:08:54.153Z,99.90
2017-05-21T23:11:21.881Z,99.90
2017-05-21T23:13:49.638Z,99.90
2017-05-21T23:16:17.719Z,99.90
2017-05-21T23:18:45.445Z,99.90
2017-05-21T23:21:13.173Z,99.90
2017-05-21T23:23:41.304Z,99.30
2017-05-21T23:26:09.049Z,99.70
2017-05-21T23:28:36.777Z,99.90
2017-05-21T23:31:04.532Z,99.90
2017-05-21T23:33:32.268Z,99.90
2017-05-21T23:36:00.012Z,98.90
2017-05-21T23:38:28.687Z,99.90
2017-05-21T23:40:56.409Z,99.90
2017-05-21T23:43:24.136Z,98.90
2017-05-21T23:45:52.223Z,99.30
2017-05-21T23:48:20.051Z,99.90
2017-05-21T23:50:47.786Z,97.20
2017-05-21T23:53:15.544Z,99.90
2017-05-21T23:55:43.290Z,99.90
2017-05-21T23:58:11.107Z,99.90
